sensor_id;sensor_type;location;lat;lon;timestamp;temperature;humidity
66582;SHT31;53438;48.898;2.308;2023-04-25T03:00:41;8.92;81.80
66582;SHT31;53438;48.898;2.308;2023-04-25T03:03:07;8.98;82.18
66582;SHT31;53438;48.898;2.308;2023-04-25T03:05:33;9.10;81.97
66582;SHT31;53438;48.898;2.308;2023-04-25T03:07:58;9.17;81.89
66582;SHT31;53438;48.898;2.308;2023-04-25T03:10:23;9.22;81.88
66582;SHT31;53438;48.898;2.308;2023-04-25T03:12:49;9.28;81.52
66582;SHT31;53438;48.898;2.308;2023-04-25T03:15:14;9.39;81.15
66582;SHT31;53438;48.898;2.308;2023-04-25T03:17:41;9.45;81.30
66582;SHT31;53438;48.898;2.308;2023-04-25T03:20:07;9.32;81.59
66582;SHT31;53438;48.898;2.308;2023-04-25T03:22:33;9.40;81.17
66582;SHT31;53438;48.898;2.308;2023-04-25T03:24:59;9.31;81.18
66582;SHT31;53438;48.898;2.308;2023-04-25T03:27:24;9.35;80.92
66582;SHT31;53438;48.898;2.308;2023-04-25T03:29:49;9.36;80.97
66582;SHT31;53438;48.898;2.308;2023-04-25T03:32:15;9.34;81.26
66582;SHT31;53438;48.898;2.308;2023-04-25T03:34:40;9.35;81.05
66582;SHT31;53438;48.898;2.308;2023-04-25T03:37:06;9.25;81.03
66582;SHT31;53438;48.898;2.308;2023-04-25T03:39:31;9.38;81.20
66582;SHT31;53438;48.898;2.308;2023-04-25T03:41:57;9.21;81.26
66582;SHT31;53438;48.898;2.308;2023-04-25T03:44:22;9.38;81.18
66582;SHT31;53438;48.898;2.308;2023-04-25T03:46:49;9.45;81.04
66582;SHT31;53438;48.898;2.308;2023-04-25T03:49:14;9.49;80.58
66582;SHT31;53438;48.898;2.308;2023-04-25T03:51:40;9.43;80.70
66582;SHT31;53438;48.898;2.308;2023-04-25T03:54:05;9.31;81.08
66582;SHT31;53438;48.898;2.308;2023-04-25T03:56:31;9.28;81.12
66582;SHT31;53438;48.898;2.308;2023-04-25T03:58:56;9.29;80.94
66582;SHT31;53438;48.898;2.308;2023-04-25T04:01:21;8.98;81.66
66582;SHT31;53438;48.898;2.308;2023-04-25T04:03:47;8.92;82.09
66582;SHT31;53438;48.898;2.308;2023-04-25T04:06:12;9.01;82.41
66582;SHT31;53438;48.898;2.308;2023-04-25T04:08:38;9.10;81.69
66582;SHT31;53438;48.898;2.308;2023-04-25T04:11:03;9.12;81.55
66582;SHT31;53438;48.898;2.308;2023-04-25T04:13:29;9.05;81.84
66582;SHT31;53438;48.898;2.308;2023-04-25T04:15:55;9.11;82.32
66582;SHT31;53438;48.898;2.308;2023-04-25T04:18:20;8.98;82.49
66582;SHT31;53438;48.898;2.308;2023-04-25T04:20:46;9.04;82.56
66582;SHT31;53438;48.898;2.308;2023-04-25T04:23:12;9.01;82.51
66582;SHT31;53438;48.898;2.308;2023-04-25T04:25:37;9.19;82.23
66582;SHT31;53438;48.898;2.308;2023-04-25T04:28:05;9.21;81.89
66582;SHT31;53438;48.898;2.308;2023-04-25T04:30:31;9.18;81.94
66582;SHT31;53438;48.898;2.308;2023-04-25T04:32:57;9.18;81.90
66582;SHT31;53438;48.898;2.308;2023-04-25T04:35:24;8.84;83.02
66582;SHT31;53438;48.898;2.308;2023-04-25T04:37:50;8.87;82.96
66582;SHT31;53438;48.898;2.308;2023-04-25T04:40:16;8.87;83.12
66582;SHT31;53438;48.898;2.308;2023-04-25T04:42:44;8.85;83.09
66582;SHT31;53438;48.898;2.308;2023-04-25T04:45:13;8.73;83.52
66582;SHT31;53438;48.898;2.308;2023-04-25T04:47:38;8.70;83.71
66582;SHT31;53438;48.898;2.308;2023-04-25T04:50:08;8.73;83.58
66582;SHT31;53438;48.898;2.308;2023-04-25T04:52:37;8.50;84.05
66582;SHT31;53438;48.898;2.308;2023-04-25T04:55:04;8.67;84.03
66582;SHT31;53438;48.898;2.308;2023-04-25T04:57:30;8.64;84.06
66582;SHT31;53438;48.898;2.308;2023-04-25T04:59:56;8.77;83.76
66582;SHT31;53438;48.898;2.308;2023-04-25T05:02:21;8.70;83.65
66582;SHT31;53438;48.898;2.308;2023-04-25T05:04:47;8.57;84.18
66582;SHT31;53438;48.898;2.308;2023-04-25T05:07:12;8.73;84.11
66582;SHT31;53438;48.898;2.308;2023-04-25T05:09:38;8.74;83.88
66582;SHT31;53438;48.898;2.308;2023-04-25T05:12:03;8.81;83.62
66582;SHT31;53438;48.898;2.308;2023-04-25T05:14:29;8.83;83.57
66582;SHT31;53438;48.898;2.308;2023-04-25T05:16:54;8.74;84.14
66582;SHT31;53438;48.898;2.308;2023-04-25T05:19:20;8.73;84.31
66582;SHT31;53438;48.898;2.308;2023-04-25T05:21:45;8.67;84.43
66582;SHT31;53438;48.898;2.308;2023-04-25T05:24:10;8.74;84.43
66582;SHT31;53438;48.898;2.308;2023-04-25T05:26:37;8.76;84.23
66582;SHT31;53438;48.898;2.308;2023-04-25T05:29:02;8.77;84.03
66582;SHT31;53438;48.898;2.308;2023-04-25T05:31:28;8.95;83.96
66582;SHT31;53438;48.898;2.308;2023-04-25T05:33:54;8.88;83.80
66582;SHT31;53438;48.898;2.308;2023-04-25T05:36:20;8.70;84.18
66582;SHT31;53438;48.898;2.308;2023-04-25T05:38:45;8.74;84.27
66582;SHT31;53438;48.898;2.308;2023-04-25T05:41:11;8.83;83.99
66582;SHT31;53438;48.898;2.308;2023-04-25T05:43:37;8.77;84.27
66582;SHT31;53438;48.898;2.308;2023-04-25T05:46:03;8.71;84.50
66582;SHT31;53438;48.898;2.308;2023-04-25T05:48:28;8.83;84.30
66582;SHT31;53438;48.898;2.308;2023-04-25T05:50:53;8.70;84.50
66582;SHT31;53438;48.898;2.308;2023-04-25T05:53:20;8.84;84.39
66582;SHT31;53438;48.898;2.308;2023-04-25T05:55:46;9.00;84.37
66582;SHT31;53438;48.898;2.308;2023-04-25T05:58:11;9.00;84.30
66582;SHT31;53438;48.898;2.308;2023-04-25T06:00:37;8.76;84.65
66582;SHT31;53438;48.898;2.308;2023-04-25T06:03:03;8.89;84.32
66582;SHT31;53438;48.898;2.308;2023-04-25T06:05:29;8.83;84.57
66582;SHT31;53438;48.898;2.308;2023-04-25T06:07:54;8.94;84.56
66582;SHT31;53438;48.898;2.308;2023-04-25T06:12:55;8.98;83.74
66582;SHT31;53438;48.898;2.308;2023-04-25T06:15:20;9.07;83.56
66582;SHT31;53438;48.898;2.308;2023-04-25T06:17:46;8.89;83.69
66582;SHT31;53438;48.898;2.308;2023-04-25T06:20:11;9.00;82.96
66582;SHT31;53438;48.898;2.308;2023-04-25T06:22:36;9.11;82.55
66582;SHT31;53438;48.898;2.308;2023-04-25T06:25:02;8.98;82.47
66582;SHT31;53438;48.898;2.308;2023-04-25T06:27:29;8.92;82.56
66582;SHT31;53438;48.898;2.308;2023-04-25T06:29:55;9.04;81.83
66582;SHT31;53438;48.898;2.308;2023-04-25T06:32:20;9.10;81.80
66582;SHT31;53438;48.898;2.308;2023-04-25T06:34:46;8.98;81.68
66582;SHT31;53438;48.898;2.308;2023-04-25T06:37:12;8.68;82.48
66582;SHT31;53438;48.898;2.308;2023-04-25T06:39:38;8.85;82.24
66582;SHT31;53438;48.898;2.308;2023-04-25T06:42:03;9.08;82.12
66582;SHT31;53438;48.898;2.308;2023-04-25T06:44:28;9.12;81.65
66582;SHT31;53438;48.898;2.308;2023-04-25T06:46:55;9.26;81.35
66582;SHT31;53438;48.898;2.308;2023-04-25T06:49:20;9.25;80.67
66582;SHT31;53438;48.898;2.308;2023-04-25T06:51:45;9.36;80.61
66582;SHT31;53438;48.898;2.308;2023-04-25T06:54:11;9.34;80.38
66582;SHT31;53438;48.898;2.308;2023-04-25T06:56:36;9.46;79.82
66582;SHT31;53438;48.898;2.308;2023-04-25T06:59:01;9.43;79.87
66582;SHT31;53438;48.898;2.308;2023-04-25T07:01:27;9.38;79.93
66582;SHT31;53438;48.898;2.308;2023-04-25T07:03:52;9.26;80.57
66582;SHT31;53438;48.898;2.308;2023-04-25T07:06:17;9.07;81.13
66582;SHT31;53438;48.898;2.308;2023-04-25T07:08:43;9.17;80.93
66582;SHT31;53438;48.898;2.308;2023-04-25T07:11:08;9.04;81.00
66582;SHT31;53438;48.898;2.308;2023-04-25T07:13:34;9.10;80.77
66582;SHT31;53438;48.898;2.308;2023-04-25T07:15:59;9.36;80.09
66582;SHT31;53438;48.898;2.308;2023-04-25T07:18:25;9.32;80.07
66582;SHT31;53438;48.898;2.308;2023-04-25T07:20:50;9.47;79.60
66582;SHT31;53438;48.898;2.308;2023-04-25T07:23:15;9.25;80.33
66582;SHT31;53438;48.898;2.308;2023-04-25T07:25:41;8.92;80.75
66582;SHT31;53438;48.898;2.308;2023-04-25T07:28:06;9.01;80.82
66582;SHT31;53438;48.898;2.308;2023-04-25T07:30:32;9.18;80.38
66582;SHT31;53438;48.898;2.308;2023-04-25T07:32:57;9.19;78.62
66582;SHT31;53438;48.898;2.308;2023-04-25T07:35:22;9.22;78.51
66582;SHT31;53438;48.898;2.308;2023-04-25T07:37:48;9.28;77.97
66582;SHT31;53438;48.898;2.308;2023-04-25T07:40:13;9.19;77.85
66582;SHT31;53438;48.898;2.308;2023-04-25T07:42:41;9.15;77.60
66582;SHT31;53438;48.898;2.308;2023-04-25T07:45:07;9.17;77.46
66582;SHT31;53438;48.898;2.308;2023-04-25T07:47:32;9.25;76.84
66582;SHT31;53438;48.898;2.308;2023-04-25T07:49:58;9.21;76.99
66582;SHT31;53438;48.898;2.308;2023-04-25T07:52:23;9.26;76.92
66582;SHT31;53438;48.898;2.308;2023-04-25T07:54:50;9.18;77.04
66582;SHT31;53438;48.898;2.308;2023-04-25T07:57:16;9.19;76.70
66582;SHT31;53438;48.898;2.308;2023-04-25T07:59:42;9.19;76.79
66582;SHT31;53438;48.898;2.308;2023-04-25T08:02:07;9.35;76.64
66582;SHT31;53438;48.898;2.308;2023-04-25T08:04:32;9.42;76.80
66582;SHT31;53438;48.898;2.308;2023-04-25T08:06:58;9.35;76.88
66582;SHT31;53438;48.898;2.308;2023-04-25T08:09:23;9.52;76.34
66582;SHT31;53438;48.898;2.308;2023-04-25T08:11:49;9.72;76.38
66582;SHT31;53438;48.898;2.308;2023-04-25T08:14:14;9.73;76.25
66582;SHT31;53438;48.898;2.308;2023-04-25T08:16:41;9.80;76.55
66582;SHT31;53438;48.898;2.308;2023-04-25T08:19:07;9.79;76.12
66582;SHT31;53438;48.898;2.308;2023-04-25T08:21:32;9.66;76.30
66582;SHT31;53438;48.898;2.308;2023-04-25T08:23:58;9.63;76.41
66582;SHT31;53438;48.898;2.308;2023-04-25T08:26:24;9.63;76.76
66582;SHT31;53438;48.898;2.308;2023-04-25T08:28:50;9.70;76.22
66582;SHT31;53438;48.898;2.308;2023-04-25T08:31:15;9.57;76.02
66582;SHT31;53438;48.898;2.308;2023-04-25T08:33:41;9.76;75.84
66582;SHT31;53438;48.898;2.308;2023-04-25T08:36:06;9.70;74.74
66582;SHT31;53438;48.898;2.308;2023-04-25T08:38:32;9.76;74.60
66582;SHT31;53438;48.898;2.308;2023-04-25T08:40:59;9.59;74.72
66582;SHT31;53438;48.898;2.308;2023-04-25T08:43:26;9.63;75.83
66582;SHT31;53438;48.898;2.308;2023-04-25T08:45:52;9.63;75.34
66582;SHT31;53438;48.898;2.308;2023-04-25T08:48:19;9.70;75.42
66582;SHT31;53438;48.898;2.308;2023-04-25T08:50:52;9.67;74.94
66582;SHT31;53438;48.898;2.308;2023-04-25T08:53:25;9.60;74.76
66582;SHT31;53438;48.898;2.308;2023-04-25T08:55:51;9.66;75.04
66582;SHT31;53438;48.898;2.308;2023-04-25T08:58:18;9.83;74.43
66582;SHT31;53438;48.898;2.308;2023-04-25T09:00:47;9.87;73.71
66582;SHT31;53438;48.898;2.308;2023-04-25T09:03:13;10.04;74.21
66582;SHT31;53438;48.898;2.308;2023-04-25T09:05:40;10.10;74.04
66582;SHT31;53438;48.898;2.308;2023-04-25T09:08:05;9.98;73.37
66582;SHT31;53438;48.898;2.308;2023-04-25T09:10:31;9.82;73.39
66582;SHT31;53438;48.898;2.308;2023-04-25T09:13:07;9.83;73.75
66582;SHT31;53438;48.898;2.308;2023-04-25T09:15:48;9.91;72.62
66582;SHT31;53438;48.898;2.308;2023-04-25T09:18:22;10.01;71.98
66582;SHT31;53438;48.898;2.308;2023-04-25T09:20:47;9.97;71.95
66582;SHT31;53438;48.898;2.308;2023-04-25T09:23:14;9.97;71.95
66582;SHT31;53438;48.898;2.308;2023-04-25T09:25:39;10.00;71.99
66582;SHT31;53438;48.898;2.308;2023-04-25T09:28:06;9.93;72.14
66582;SHT31;53438;48.898;2.308;2023-04-25T09:30:33;9.93;72.21
66582;SHT31;53438;48.898;2.308;2023-04-25T09:33:06;9.91;72.41
66582;SHT31;53438;48.898;2.308;2023-04-25T09:38:08;9.86;72.48
66582;SHT31;53438;48.898;2.308;2023-04-25T09:40:33;9.86;72.25
66582;SHT31;53438;48.898;2.308;2023-04-25T09:42:58;9.97;72.00
66582;SHT31;53438;48.898;2.308;2023-04-25T09:45:24;10.13;71.77
66582;SHT31;53438;48.898;2.308;2023-04-25T09:47:49;9.96;71.52
66582;SHT31;53438;48.898;2.308;2023-04-25T09:50:16;10.10;71.83
66582;SHT31;53438;48.898;2.308;2023-04-25T09:52:42;10.13;70.83
66582;SHT31;53438;48.898;2.308;2023-04-25T09:55:08;10.37;70.80
66582;SHT31;53438;48.898;2.308;2023-04-25T09:57:35;10.72;70.24
66582;SHT31;53438;48.898;2.308;2023-04-25T10:00:01;10.88;68.80
66582;SHT31;53438;48.898;2.308;2023-04-25T10:02:28;10.72;67.74
66582;SHT31;53438;48.898;2.308;2023-04-25T10:04:54;10.75;68.11
66582;SHT31;53438;48.898;2.308;2023-04-25T10:07:30;10.73;68.56
66582;SHT31;53438;48.898;2.308;2023-04-25T10:10:01;10.77;69.03
66582;SHT31;53438;48.898;2.308;2023-04-25T10:12:28;10.77;68.89
66582;SHT31;53438;48.898;2.308;2023-04-25T10:14:54;10.83;68.29
66582;SHT31;53438;48.898;2.308;2023-04-25T10:17:20;11.16;68.07
66582;SHT31;53438;48.898;2.308;2023-04-25T10:19:49;11.13;67.32
66582;SHT31;53438;48.898;2.308;2023-04-25T10:22:29;11.02;68.06
66582;SHT31;53438;48.898;2.308;2023-04-25T10:24:56;11.12;67.44
66582;SHT31;53438;48.898;2.308;2023-04-25T10:27:22;11.13;67.25
66582;SHT31;53438;48.898;2.308;2023-04-25T10:30:03;11.09;67.01
66582;SHT31;53438;48.898;2.308;2023-04-25T10:32:35;11.06;66.71
66582;SHT31;53438;48.898;2.308;2023-04-25T10:35:15;11.07;66.52
66582;SHT31;53438;48.898;2.308;2023-04-25T10:38:04;11.30;65.84
66582;SHT31;53438;48.898;2.308;2023-04-25T10:40:31;11.06;65.40
66582;SHT31;53438;48.898;2.308;2023-04-25T10:43:33;10.95;66.52
66582;SHT31;53438;48.898;2.308;2023-04-25T10:46:01;10.95;64.99
66582;SHT31;53438;48.898;2.308;2023-04-25T10:48:28;10.99;65.02
66582;SHT31;53438;48.898;2.308;2023-04-25T10:51:24;11.05;64.88
66582;SHT31;53438;48.898;2.308;2023-04-25T10:56:27;11.12;64.92
66582;SHT31;53438;48.898;2.308;2023-04-25T11:01:43;11.17;64.41
66582;SHT31;53438;48.898;2.308;2023-04-25T11:04:23;11.26;63.87
66582;SHT31;53438;48.898;2.308;2023-04-25T11:07:16;11.38;64.17
66582;SHT31;53438;48.898;2.308;2023-04-25T11:09:48;11.37;64.18
66582;SHT31;53438;48.898;2.308;2023-04-25T11:12:13;11.17;63.61
66582;SHT31;53438;48.898;2.308;2023-04-25T11:14:40;10.99;64.23
66582;SHT31;53438;48.898;2.308;2023-04-25T11:17:05;10.83;65.28
66582;SHT31;53438;48.898;2.308;2023-04-25T11:19:31;11.05;64.30
66582;SHT31;53438;48.898;2.308;2023-04-25T11:21:58;11.15;64.29
66582;SHT31;53438;48.898;2.308;2023-04-25T11:26:53;11.38;62.91
66582;SHT31;53438;48.898;2.308;2023-04-25T11:29:22;11.37;63.41
66582;SHT31;53438;48.898;2.308;2023-04-25T11:31:47;11.37;62.36
66582;SHT31;53438;48.898;2.308;2023-04-25T11:34:17;11.41;61.84
66582;SHT31;53438;48.898;2.308;2023-04-25T11:36:42;11.45;61.37
66582;SHT31;53438;48.898;2.308;2023-04-25T11:39:08;11.70;61.32
66582;SHT31;53438;48.898;2.308;2023-04-25T11:41:37;11.53;60.88
66582;SHT31;53438;48.898;2.308;2023-04-25T11:44:03;11.48;61.00
66582;SHT31;53438;48.898;2.308;2023-04-25T11:46:28;11.54;61.74
66582;SHT31;53438;48.898;2.308;2023-04-25T11:48:55;11.50;62.20
66582;SHT31;53438;48.898;2.308;2023-04-25T11:51:21;11.64;62.64
66582;SHT31;53438;48.898;2.308;2023-04-25T11:53:47;11.37;63.47
66582;SHT31;53438;48.898;2.308;2023-04-25T11:56:12;11.36;64.15
66582;SHT31;53438;48.898;2.308;2023-04-25T11:59:10;10.89;64.83
66582;SHT31;53438;48.898;2.308;2023-04-25T12:01:40;11.00;64.73
66582;SHT31;53438;48.898;2.308;2023-04-25T12:06:41;11.16;64.93
66582;SHT31;53438;48.898;2.308;2023-04-25T12:09:09;11.23;64.13
66582;SHT31;53438;48.898;2.308;2023-04-25T12:11:45;11.37;64.22
66582;SHT31;53438;48.898;2.308;2023-04-25T12:14:11;11.47;63.80
66582;SHT31;53438;48.898;2.308;2023-04-25T12:16:44;11.63;63.54
66582;SHT31;53438;48.898;2.308;2023-04-25T12:19:09;11.54;63.80
66582;SHT31;53438;48.898;2.308;2023-04-25T12:21:35;11.58;63.14
66582;SHT31;53438;48.898;2.308;2023-04-25T12:24:14;11.65;63.03
66582;SHT31;53438;48.898;2.308;2023-04-25T12:26:50;11.79;62.20
66582;SHT31;53438;48.898;2.308;2023-04-25T12:29:18;11.65;62.80
66582;SHT31;53438;48.898;2.308;2023-04-25T12:31:43;11.67;63.20
66582;SHT31;53438;48.898;2.308;2023-04-25T12:34:09;11.61;63.43
66582;SHT31;53438;48.898;2.308;2023-04-25T12:36:35;11.55;62.97
66582;SHT31;53438;48.898;2.308;2023-04-25T12:39:00;11.57;62.60
66582;SHT31;53438;48.898;2.308;2023-04-25T12:41:29;11.77;61.85
66582;SHT31;53438;48.898;2.308;2023-04-25T12:43:55;11.61;62.33
66582;SHT31;53438;48.898;2.308;2023-04-25T12:46:20;11.88;61.84
66582;SHT31;53438;48.898;2.308;2023-04-25T12:48:46;12.02;60.45
66582;SHT31;53438;48.898;2.308;2023-04-25T12:51:11;12.23;59.86
66582;SHT31;53438;48.898;2.308;2023-04-25T12:53:36;12.39;59.40
66582;SHT31;53438;48.898;2.308;2023-04-25T12:56:04;12.43;60.12
66582;SHT31;53438;48.898;2.308;2023-04-25T12:58:29;12.29;58.38
66582;SHT31;53438;48.898;2.308;2023-04-25T13:00:55;12.36;58.83
66582;SHT31;53438;48.898;2.308;2023-04-25T13:03:20;12.32;58.81
66582;SHT31;53438;48.898;2.308;2023-04-25T13:05:46;12.37;58.71
66582;SHT31;53438;48.898;2.308;2023-04-25T13:08:12;12.30;58.64
66582;SHT31;53438;48.898;2.308;2023-04-25T13:10:37;12.32;59.66
66582;SHT31;53438;48.898;2.308;2023-04-25T13:13:04;12.33;60.16
66582;SHT31;53438;48.898;2.308;2023-04-25T13:15:29;12.28;59.71
66582;SHT31;53438;48.898;2.308;2023-04-25T13:17:55;12.16;59.22
66582;SHT31;53438;48.898;2.308;2023-04-25T13:20:21;12.11;59.58
66582;SHT31;53438;48.898;2.308;2023-04-25T13:22:47;12.08;59.75
66582;SHT31;53438;48.898;2.308;2023-04-25T13:25:12;12.18;59.22
66582;SHT31;53438;48.898;2.308;2023-04-25T13:27:38;12.05;58.55
66582;SHT31;53438;48.898;2.308;2023-04-25T13:30:06;11.92;59.26
66582;SHT31;53438;48.898;2.308;2023-04-25T13:32:38;12.08;59.14
66582;SHT31;53438;48.898;2.308;2023-04-25T13:35:09;12.16;58.55
66582;SHT31;53438;48.898;2.308;2023-04-25T13:37:34;12.23;59.09
66582;SHT31;53438;48.898;2.308;2023-04-25T13:40:04;12.32;59.40
66582;SHT31;53438;48.898;2.308;2023-04-25T13:42:31;12.33;58.30
66582;SHT31;53438;48.898;2.308;2023-04-25T13:45:16;12.36;58.45
66582;SHT31;53438;48.898;2.308;2023-04-25T13:47:41;12.29;58.68
66582;SHT31;53438;48.898;2.308;2023-04-25T13:50:07;12.26;57.89
66582;SHT31;53438;48.898;2.308;2023-04-25T13:52:34;12.13;57.55
66582;SHT31;53438;48.898;2.308;2023-04-25T13:54:59;11.92;56.91
66582;SHT31;53438;48.898;2.308;2023-04-25T13:57:26;11.82;57.35
66582;SHT31;53438;48.898;2.308;2023-04-25T13:59:51;12.04;57.28
66582;SHT31;53438;48.898;2.308;2023-04-25T14:02:18;12.19;57.39
66582;SHT31;53438;48.898;2.308;2023-04-25T14:04:43;12.08;58.31
66582;SHT31;53438;48.898;2.308;2023-04-25T14:07:08;12.11;57.74
66582;SHT31;53438;48.898;2.308;2023-04-25T14:09:36;12.06;57.09
66582;SHT31;53438;48.898;2.308;2023-04-25T14:12:01;12.02;56.38
66582;SHT31;53438;48.898;2.308;2023-04-25T14:14:27;11.70;55.19
66582;SHT31;53438;48.898;2.308;2023-04-25T14:16:52;11.91;55.70
66582;SHT31;53438;48.898;2.308;2023-04-25T14:19:19;12.01;55.17
66582;SHT31;53438;48.898;2.308;2023-04-25T14:21:45;11.89;55.18
66582;SHT31;53438;48.898;2.308;2023-04-25T14:24:11;11.99;55.36
66582;SHT31;53438;48.898;2.308;2023-04-25T14:26:36;11.96;55.52
66582;SHT31;53438;48.898;2.308;2023-04-25T14:29:05;12.08;55.06
66582;SHT31;53438;48.898;2.308;2023-04-25T14:31:32;12.05;55.36
66582;SHT31;53438;48.898;2.308;2023-04-25T14:33:57;11.98;55.37
66582;SHT31;53438;48.898;2.308;2023-04-25T14:36:24;12.09;55.81
66582;SHT31;53438;48.898;2.308;2023-04-25T14:38:51;12.11;55.92
66582;SHT31;53438;48.898;2.308;2023-04-25T14:41:16;12.05;54.60
66582;SHT31;53438;48.898;2.308;2023-04-25T14:43:42;12.19;54.82
66582;SHT31;53438;48.898;2.308;2023-04-25T14:46:08;12.19;54.57
66582;SHT31;53438;48.898;2.308;2023-04-25T14:48:34;11.99;53.86
66582;SHT31;53438;48.898;2.308;2023-04-25T14:51:00;12.06;54.18
66582;SHT31;53438;48.898;2.308;2023-04-25T14:53:27;12.08;53.04
66582;SHT31;53438;48.898;2.308;2023-04-25T14:55:52;12.21;52.59
66582;SHT31;53438;48.898;2.308;2023-04-25T14:58:18;12.29;51.96
66582;SHT31;53438;48.898;2.308;2023-04-25T15:00:43;12.36;51.53
66582;SHT31;53438;48.898;2.308;2023-04-25T15:03:09;12.43;51.52
66582;SHT31;53438;48.898;2.308;2023-04-25T15:05:36;12.25;51.34
66582;SHT31;53438;48.898;2.308;2023-04-25T15:08:02;12.36;52.74
66582;SHT31;53438;48.898;2.308;2023-04-25T15:10:28;12.47;52.87
66582;SHT31;53438;48.898;2.308;2023-04-25T15:12:53;12.54;53.47
66582;SHT31;53438;48.898;2.308;2023-04-25T15:15:19;12.60;54.34
66582;SHT31;53438;48.898;2.308;2023-04-25T15:17:44;12.54;54.74
66582;SHT31;53438;48.898;2.308;2023-04-25T15:20:12;12.42;55.13
66582;SHT31;53438;48.898;2.308;2023-04-25T15:22:42;12.47;55.06
66582;SHT31;53438;48.898;2.308;2023-04-25T15:25:09;12.44;55.30
66582;SHT31;53438;48.898;2.308;2023-04-25T15:27:38;12.43;55.50
66582;SHT31;53438;48.898;2.308;2023-04-25T15:30:10;12.42;55.24
66582;SHT31;53438;48.898;2.308;2023-04-25T15:32:40;12.52;55.14
66582;SHT31;53438;48.898;2.308;2023-04-25T15:35:06;12.61;54.86
66582;SHT31;53438;48.898;2.308;2023-04-25T15:37:32;12.56;55.04
66582;SHT31;53438;48.898;2.308;2023-04-25T15:40:03;12.61;54.71
66582;SHT31;53438;48.898;2.308;2023-04-25T15:42:36;12.57;54.51
66582;SHT31;53438;48.898;2.308;2023-04-25T15:45:03;12.52;54.77
66582;SHT31;53438;48.898;2.308;2023-04-25T15:47:29;12.47;54.39
66582;SHT31;53438;48.898;2.308;2023-04-25T15:49:54;12.37;54.85
66582;SHT31;53438;48.898;2.308;2023-04-25T15:52:20;12.47;56.08
66582;SHT31;53438;48.898;2.308;2023-04-25T15:54:46;12.46;54.95
66582;SHT31;53438;48.898;2.308;2023-04-25T15:57:12;12.50;54.98
66582;SHT31;53438;48.898;2.308;2023-04-25T15:59:37;12.46;54.76
66582;SHT31;53438;48.898;2.308;2023-04-25T16:02:03;12.49;54.52
66582;SHT31;53438;48.898;2.308;2023-04-25T16:04:28;12.28;54.59
66582;SHT31;53438;48.898;2.308;2023-04-25T16:06:59;12.34;55.47
66582;SHT31;53438;48.898;2.308;2023-04-25T16:09:25;12.43;55.06
66582;SHT31;53438;48.898;2.308;2023-04-25T16:11:51;12.50;54.12
66582;SHT31;53438;48.898;2.308;2023-04-25T16:14:17;12.47;53.49
66582;SHT31;53438;48.898;2.308;2023-04-25T16:16:42;12.42;53.72
66582;SHT31;53438;48.898;2.308;2023-04-25T16:19:09;12.59;52.90
66582;SHT31;53438;48.898;2.308;2023-04-25T16:21:34;12.52;52.95
66582;SHT31;53438;48.898;2.308;2023-04-25T16:24:00;12.49;52.98
66582;SHT31;53438;48.898;2.308;2023-04-25T16:26:25;12.57;53.64
66582;SHT31;53438;48.898;2.308;2023-04-25T16:28:50;12.57;52.66
66582;SHT31;53438;48.898;2.308;2023-04-25T16:31:16;12.72;52.81
66582;SHT31;53438;48.898;2.308;2023-04-25T16:33:42;12.63;53.10
66582;SHT31;53438;48.898;2.308;2023-04-25T16:36:07;12.63;52.04
66582;SHT31;53438;48.898;2.308;2023-04-25T16:38:33;12.49;51.30
66582;SHT31;53438;48.898;2.308;2023-04-25T16:40:59;12.43;51.50
66582;SHT31;53438;48.898;2.308;2023-04-25T16:43:25;12.36;51.27
66582;SHT31;53438;48.898;2.308;2023-04-25T16:45:51;12.33;51.39
66582;SHT31;53438;48.898;2.308;2023-04-25T16:48:16;12.32;51.15
66582;SHT31;53438;48.898;2.308;2023-04-25T16:50:44;12.42;51.57
66582;SHT31;53438;48.898;2.308;2023-04-25T16:53:09;12.40;50.56
66582;SHT31;53438;48.898;2.308;2023-04-25T16:55:34;12.42;50.63
66582;SHT31;53438;48.898;2.308;2023-04-25T16:58:00;12.47;50.90
66582;SHT31;53438;48.898;2.308;2023-04-25T17:00:26;12.53;50.36
66582;SHT31;53438;48.898;2.308;2023-04-25T17:02:51;12.49;50.40
66582;SHT31;53438;48.898;2.308;2023-04-25T17:05:16;12.56;50.94
66582;SHT31;53438;48.898;2.308;2023-04-25T17:07:42;12.63;51.02
66582;SHT31;53438;48.898;2.308;2023-04-25T17:10:07;12.84;49.79
66582;SHT31;53438;48.898;2.308;2023-04-25T17:12:33;12.85;49.44
66582;SHT31;53438;48.898;2.308;2023-04-25T17:14:58;12.79;50.44
66582;SHT31;53438;48.898;2.308;2023-04-25T17:17:25;12.77;50.58
66582;SHT31;53438;48.898;2.308;2023-04-25T17:19:50;12.59;49.98
66582;SHT31;53438;48.898;2.308;2023-04-25T17:22:16;12.53;50.00
66582;SHT31;53438;48.898;2.308;2023-04-25T17:24:41;12.64;49.89
66582;SHT31;53438;48.898;2.308;2023-04-25T17:27:06;12.67;49.10
66582;SHT31;53438;48.898;2.308;2023-04-25T17:29:32;12.73;49.21
66582;SHT31;53438;48.898;2.308;2023-04-25T17:31:59;12.61;49.77
66582;SHT31;53438;48.898;2.308;2023-04-25T17:34:24;12.65;49.50
66582;SHT31;53438;48.898;2.308;2023-04-25T17:36:50;12.57;49.02
66582;SHT31;53438;48.898;2.308;2023-04-25T17:39:15;12.64;49.08
66582;SHT31;53438;48.898;2.308;2023-04-25T17:41:42;12.43;49.60
66582;SHT31;53438;48.898;2.308;2023-04-25T17:44:08;12.46;49.89
66582;SHT31;53438;48.898;2.308;2023-04-25T17:46:33;12.40;50.14
66582;SHT31;53438;48.898;2.308;2023-04-25T17:48:59;12.44;50.43
66582;SHT31;53438;48.898;2.308;2023-04-25T17:51:25;12.53;50.43
66582;SHT31;53438;48.898;2.308;2023-04-25T17:53:50;12.50;51.52
66582;SHT31;53438;48.898;2.308;2023-04-25T17:56:16;12.54;51.71
66582;SHT31;53438;48.898;2.308;2023-04-25T17:58:41;12.56;51.87
66582;SHT31;53438;48.898;2.308;2023-04-25T18:01:07;12.47;52.43
66582;SHT31;53438;48.898;2.308;2023-04-25T18:03:32;12.49;51.67
66582;SHT31;53438;48.898;2.308;2023-04-25T18:05:57;12.39;52.90
66582;SHT31;53438;48.898;2.308;2023-04-25T18:08:23;12.39;53.45
66582;SHT31;53438;48.898;2.308;2023-04-25T18:10:48;12.29;53.92
66582;SHT31;53438;48.898;2.308;2023-04-25T18:13:14;12.28;54.22
66582;SHT31;53438;48.898;2.308;2023-04-25T18:15:39;12.37;53.96
66582;SHT31;53438;48.898;2.308;2023-04-25T18:18:05;12.34;54.46
66582;SHT31;53438;48.898;2.308;2023-04-25T18:20:40;12.22;54.48
66582;SHT31;53438;48.898;2.308;2023-04-25T18:23:06;12.12;54.89
66582;SHT31;53438;48.898;2.308;2023-04-25T18:25:33;12.09;55.14
66582;SHT31;53438;48.898;2.308;2023-04-25T18:27:58;12.21;54.32
66582;SHT31;53438;48.898;2.308;2023-04-25T18:30:24;12.09;54.70
66582;SHT31;53438;48.898;2.308;2023-04-25T18:32:50;12.06;55.02
66582;SHT31;53438;48.898;2.308;2023-04-25T18:35:15;12.01;54.65
66582;SHT31;53438;48.898;2.308;2023-04-25T18:37:41;12.01;54.75
66582;SHT31;53438;48.898;2.308;2023-04-25T18:40:07;12.01;54.80
66582;SHT31;53438;48.898;2.308;2023-04-25T18:42:34;11.98;55.25
66582;SHT31;53438;48.898;2.308;2023-04-25T18:44:59;11.92;54.56
66582;SHT31;53438;48.898;2.308;2023-04-25T18:47:25;11.91;54.46
66582;SHT31;53438;48.898;2.308;2023-04-25T18:49:50;11.82;55.01